Time;durP1;ratioP1;P1;durP2;ratioP2;P2;SDS_P1;SDS_P2;PMS_P1;PMS_P2;Temp;Humidity;BMP_temperature;BMP_pressure;BME280_temperature;BME280_humidity;BME280_pressure;Samples;Min_cycle;Max_cycle;Signal;HPM_P1;HPM_P2
2022/03/26 00:00:09;;;;;;;6.60;3.13;;;8.40;62.80;;;;;;5045321;28;20040;-74
2022/03/26 00:02:35;;;;;;;4.75;3.40;;;8.40;62.80;;;;;;5047667;28;20029;-74
2022/03/26 00:05:01;;;;;;;6.97;3.38;;;8.10;63.90;;;;;;5050636;28;20050;-74
2022/03/26 00:07:27;;;;;;;3.10;2.80;;;7.90;65.20;;;;;;5047438;28;20051;-74
2022/03/26 00:09:52;;;;;;;8.02;3.60;;;7.80;65.60;;;;;;5048836;28;20045;-73
2022/03/26 00:12:18;;;;;;;6.43;3.47;;;7.80;65.60;;;;;;5044586;28;20040;-74
2022/03/26 00:14:44;;;;;;;12.02;3.58;;;7.80;65.60;;;;;;5048811;28;20045;-74
2022/03/26 00:17:10;;;;;;;5.30;3.13;;;7.70;65.00;;;;;;5046612;28;20048;-73
2022/03/26 00:19:36;;;;;;;7.97;3.42;;;7.70;64.90;;;;;;5048653;28;20512;-73
2022/03/26 00:22:02;;;;;;;6.55;3.50;;;7.70;65.10;;;;;;5052051;28;20059;-73
2022/03/26 00:24:28;;;;;;;6.95;4.05;;;7.80;65.00;;;;;;5049636;28;20508;-73
2022/03/26 00:26:53;;;;;;;7.57;4.03;;;7.90;65.20;;;;;;5050895;28;20036;-73
2022/03/26 00:29:20;;;;;;;6.13;4.20;;;7.90;64.90;;;;;;5048122;28;20087;-73
2022/03/26 00:31:46;;;;;;;5.82;3.38;;;7.80;65.30;;;;;;5050303;28;20041;-73
2022/03/26 00:34:12;;;;;;;10.05;3.83;;;7.70;64.80;;;;;;5050752;28;20036;-73
2022/03/26 00:36:39;;;;;;;7.53;3.92;;;7.70;65.40;;;;;;5048216;28;20570;-73
2022/03/26 00:39:05;;;;;;;10.23;4.25;;;7.60;65.80;;;;;;5049071;28;20120;-73
2022/03/26 00:41:31;;;;;;;12.73;4.45;;;7.60;65.70;;;;;;5050300;28;20128;-73
2022/03/26 00:43:57;;;;;;;8.88;4.95;;;7.60;65.80;;;;;;5052862;28;20048;-73
2022/03/26 00:46:23;;;;;;;7.47;4.43;;;7.60;66.60;;;;;;5054516;28;20037;-72
2022/03/26 00:48:49;;;;;;;6.10;3.90;;;7.50;66.40;;;;;;5046881;28;20064;-73
2022/03/26 00:51:16;;;;;;;15.00;5.63;;;7.50;66.60;;;;;;5048434;28;20040;-73
2022/03/26 00:53:42;;;;;;;4.55;3.28;;;7.50;66.40;;;;;;5046740;28;20175;-72
2022/03/26 00:56:08;;;;;;;7.97;4.10;;;7.50;66.70;;;;;;5052525;28;20047;-72
2022/03/26 00:58:34;;;;;;;5.68;3.45;;;7.40;66.50;;;;;;5052571;28;20063;-72
2022/03/26 01:01:00;;;;;;;7.90;3.53;;;7.40;66.80;;;;;;5051666;28;20036;-73
2022/03/26 01:03:25;;;;;;;9.27;3.50;;;7.30;67.00;;;;;;5047835;28;20832;-73
2022/03/26 01:05:51;;;;;;;7.13;3.92;;;7.20;67.00;;;;;;5055678;28;20117;-73
2022/03/26 01:08:17;;;;;;;8.65;4.30;;;7.20;67.70;;;;;;5047654;28;20094;-72
2022/03/26 01:10:44;;;;;;;7.28;4.10;;;7.20;67.80;;;;;;5046048;28;20087;-73
2022/03/26 01:13:12;;;;;;;5.60;3.83;;;7.20;67.40;;;;;;5044629;28;20068;-73
2022/03/26 01:15:38;;;;;;;15.55;3.17;;;7.20;67.90;;;;;;5048155;28;20044;-72
2022/03/26 01:18:04;;;;;;;7.00;2.85;;;7.10;67.30;;;;;;5046811;28;20551;-72
2022/03/26 01:20:30;;;;;;;7.47;3.28;;;7.00;68.40;;;;;;5053140;28;20607;-73
2022/03/26 01:22:57;;;;;;;8.75;3.15;;;6.80;68.10;;;;;;5054259;28;20039;-72
2022/03/26 01:25:24;;;;;;;8.45;4.93;;;6.80;69.60;;;;;;5048153;28;20077;-72
2022/03/26 01:27:50;;;;;;;10.10;5.45;;;6.80;68.70;;;;;;5050337;28;20123;-73
2022/03/26 01:30:16;;;;;;;10.70;5.20;;;7.00;69.10;;;;;;5049793;28;20067;-73
2022/03/26 01:32:43;;;;;;;9.10;5.72;;;7.00;68.80;;;;;;5052240;28;20051;-73
2022/03/26 01:35:10;;;;;;;6.22;3.20;;;7.00;68.70;;;;;;5053276;28;20497;-72
2022/03/26 01:37:35;;;;;;;6.38;3.67;;;6.80;69.20;;;;;;5055077;28;20067;-73
2022/03/26 01:40:02;;;;;;;17.02;5.88;;;6.60;69.40;;;;;;5051276;28;20028;-73
2022/03/26 01:42:28;;;;;;;9.80;4.43;;;6.60;69.50;;;;;;5056800;28;20033;-73
2022/03/26 01:44:53;;;;;;;11.35;6.10;;;6.60;70.90;;;;;;5060140;28;20496;-73
2022/03/26 01:47:19;;;;;;;6.90;3.45;;;6.50;69.90;;;;;;5061128;28;20032;-73
2022/03/26 01:49:45;;;;;;;5.35;3.10;;;6.40;69.80;;;;;;5039985;28;20413;-72
2022/03/26 01:52:10;;;;;;;9.35;4.60;;;6.40;69.40;;;;;;5041100;28;20729;-72
2022/03/26 01:54:38;;;;;;;7.05;3.65;;;6.30;70.20;;;;;;5059236;28;20039;-73
2022/03/26 01:57:04;;;;;;;5.60;3.17;;;6.40;70.60;;;;;;5059051;28;20055;-73
2022/03/26 01:59:31;;;;;;;5.43;2.75;;;6.30;70.20;;;;;;5058789;28;20087;-73
2022/03/26 02:01:56;;;;;;;5.38;2.70;;;6.20;69.60;;;;;;5052855;28;20025;-73
2022/03/26 02:04:22;;;;;;;9.63;2.67;;;6.10;69.80;;;;;;5056949;28;20669;-73
2022/03/26 02:06:48;;;;;;;6.38;2.80;;;6.00;70.20;;;;;;5053616;28;20345;-75
2022/03/26 02:09:15;;;;;;;5.93;3.33;;;5.90;70.40;;;;;;5052564;28;20368;-75
2022/03/26 02:11:43;;;;;;;5.90;3.35;;;5.90;71.10;;;;;;5039988;28;20044;-75
2022/03/26 02:14:11;;;;;;;7.57;3.35;;;5.80;72.20;;;;;;5060085;28;20029;-75
2022/03/26 02:16:40;;;;;;;7.82;2.92;;;5.80;71.80;;;;;;5053734;28;20031;-76
2022/03/26 02:19:07;;;;;;;4.82;2.70;;;5.70;71.80;;;;;;5058069;28;20524;-76
2022/03/26 02:21:37;;;;;;;5.35;3.20;;;5.70;73.00;;;;;;5045958;28;20123;-75
2022/03/26 02:24:06;;;;;;;9.65;2.70;;;5.60;72.20;;;;;;5061157;28;20404;-75
2022/03/26 02:26:32;;;;;;;4.00;2.90;;;5.60;72.80;;;;;;5055148;28;20451;-76
2022/03/26 02:29:04;;;;;;;6.78;2.83;;;5.60;72.70;;;;;;5037210;28;20044;-72
2022/03/26 02:31:29;;;;;;;3.85;2.42;;;5.50;73.60;;;;;;5058056;28;20590;-73
2022/03/26 02:33:55;;;;;;;9.00;2.70;;;5.50;73.10;;;;;;5057867;28;20040;-73
2022/03/26 02:36:21;;;;;;;5.07;2.63;;;5.30;73.50;;;;;;5054795;28;20044;-72
2022/03/26 02:38:46;;;;;;;6.93;3.10;;;5.30;73.80;;;;;;5058537;28;20076;-73
2022/03/26 02:41:12;;;;;;;6.90;3.10;;;5.30;74.50;;;;;;5055578;28;20033;-73
2022/03/26 02:43:38;;;;;;;5.40;2.70;;;5.20;74.00;;;;;;5056345;28;20044;-73
2022/03/26 02:46:04;;;;;;;5.18;2.70;;;5.20;73.50;;;;;;5055905;28;20045;-73
2022/03/26 02:48:30;;;;;;;4.88;2.92;;;5.20;73.80;;;;;;5053216;28;20118;-73
2022/03/26 02:50:56;;;;;;;5.63;3.00;;;5.20;74.40;;;;;;5058594;28;20037;-72
2022/03/26 02:53:22;;;;;;;4.18;3.10;;;5.10;74.90;;;;;;5062201;28;20412;-73
2022/03/26 02:55:47;;;;;;;6.63;3.10;;;5.20;75.00;;;;;;5054874;28;20104;-73
2022/03/26 02:58:14;;;;;;;5.85;2.65;;;5.10;74.70;;;;;;5052794;28;20036;-73
2022/03/26 03:00:40;;;;;;;5.70;3.05;;;5.00;74.60;;;;;;5053350;28;20195;-73
2022/03/26 03:03:08;;;;;;;7.68;2.97;;;4.80;74.90;;;;;;5053191;28;20101;-73
2022/03/26 03:05:34;;;;;;;4.93;2.38;;;4.70;75.50;;;;;;5046817;28;20071;-73
2022/03/26 03:08:00;;;;;;;5.22;2.88;;;4.70;76.20;;;;;;5052462;28;20029;-73
2022/03/26 03:10:27;;;;;;;6.32;3.10;;;4.60;75.50;;;;;;5053999;28;20631;-73
2022/03/26 03:12:53;;;;;;;4.13;2.67;;;4.70;76.10;;;;;;5050940;28;20367;-73
2022/03/26 03:15:20;;;;;;;5.50;2.95;;;4.70;76.10;;;;;;5047026;28;20051;-72
2022/03/26 03:17:47;;;;;;;4.63;3.15;;;4.70;75.70;;;;;;5050067;28;20037;-73
2022/03/26 03:20:14;;;;;;;8.25;2.45;;;4.60;76.10;;;;;;5052458;28;20056;-75
2022/03/26 03:22:41;;;;;;;5.45;2.97;;;4.50;76.10;;;;;;5056202;28;20044;-76
2022/03/26 03:25:08;;;;;;;7.35;3.63;;;4.60;76.20;;;;;;5052260;28;20061;-75
2022/03/26 03:27:35;;;;;;;5.93;2.97;;;4.60;76.50;;;;;;5038298;28;20068;-74
2022/03/26 03:30:00;;;;;;;4.85;3.08;;;4.60;76.20;;;;;;5051861;28;20152;-75
2022/03/26 03:32:26;;;;;;;7.80;4.25;;;4.60;76.10;;;;;;5056830;28;20269;-75
2022/03/26 03:34:52;;;;;;;5.47;3.17;;;4.60;76.10;;;;;;5055027;28;20047;-74
2022/03/26 03:37:18;;;;;;;6.05;3.28;;;4.60;76.90;;;;;;5058040;28;20495;-75
2022/03/26 03:39:44;;;;;;;7.95;3.22;;;4.50;76.20;;;;;;5055046;28;20127;-73
2022/03/26 03:42:11;;;;;;;4.40;3.10;;;4.50;76.30;;;;;;5053646;28;20037;-73
2022/03/26 03:44:37;;;;;;;4.90;2.80;;;4.60;76.20;;;;;;5048087;28;20036;-73
2022/03/26 03:47:03;;;;;;;8.57;2.95;;;4.50;76.70;;;;;;5058072;28;20115;-72
2022/03/26 03:49:31;;;;;;;5.35;3.15;;;4.40;76.10;;;;;;5051878;28;20135;-73
2022/03/26 03:51:58;;;;;;;8.75;3.80;;;4.30;76.60;;;;;;5058801;28;20600;-73
2022/03/26 03:54:25;;;;;;;13.63;3.15;;;4.30;76.60;;;;;;5050784;28;20041;-75
2022/03/26 03:56:51;;;;;;;9.35;3.30;;;4.40;77.30;;;;;;5053467;28;20665;-76
2022/03/26 03:59:17;;;;;;;5.93;2.50;;;4.50;77.20;;;;;;5055643;28;20036;-75
2022/03/26 04:01:42;;;;;;;6.63;2.92;;;4.50;76.30;;;;;;5050676;28;20045;-75
2022/03/26 04:04:08;;;;;;;5.57;2.72;;;4.40;75.70;;;;;;5061402;28;20051;-75
2022/03/26 04:06:34;;;;;;;4.07;2.70;;;4.20;75.40;;;;;;5053743;28;20036;-75
2022/03/26 04:08:59;;;;;;;5.57;2.83;;;4.10;76.60;;;;;;5045796;28;20147;-75
2022/03/26 04:11:25;;;;;;;6.28;2.88;;;4.00;77.00;;;;;;5055433;28;20847;-75
2022/03/26 04:13:53;;;;;;;7.60;3.63;;;4.00;76.80;;;;;;5050339;28;20554;-75
2022/03/26 04:16:22;;;;;;;7.82;3.00;;;4.00;79.10;;;;;;5048855;28;20044;-75
2022/03/26 04:18:48;;;;;;;4.88;2.80;;;3.90;78.50;;;;;;5047174;28;20132;-75
2022/03/26 04:21:14;;;;;;;4.38;2.65;;;3.90;77.70;;;;;;5049122;28;20120;-75
2022/03/26 04:23:40;;;;;;;5.05;2.70;;;3.90;78.70;;;;;;5047912;28;20037;-75
2022/03/26 04:26:07;;;;;;;5.20;2.63;;;3.90;78.20;;;;;;5047589;28;20048;-75
2022/03/26 04:28:32;;;;;;;4.70;3.05;;;3.90;78.40;;;;;;5051263;28;20041;-75
2022/03/26 04:30:58;;;;;;;7.45;4.07;;;3.90;78.80;;;;;;5050385;28;20651;-75
2022/03/26 04:33:24;;;;;;;9.68;3.60;;;4.00;78.70;;;;;;5050321;28;20043;-74
2022/03/26 04:35:50;;;;;;;11.63;3.33;;;4.00;78.80;;;;;;5062604;28;20075;-75
2022/03/26 04:38:15;;;;;;;7.25;2.90;;;4.00;77.90;;;;;;5054356;28;20094;-75
2022/03/26 04:40:41;;;;;;;6.50;2.88;;;3.90;77.80;;;;;;5056567;28;20067;-75
2022/03/26 04:43:07;;;;;;;5.00;2.83;;;3.90;78.30;;;;;;5053549;28;20044;-75
2022/03/26 04:45:33;;;;;;;10.00;3.28;;;3.80;77.80;;;;;;5050907;28;20045;-76
2022/03/26 04:47:59;;;;;;;8.20;2.72;;;3.80;78.10;;;;;;5057542;28;20106;-75
2022/03/26 04:50:26;;;;;;;6.47;2.40;;;3.70;78.70;;;;;;5057572;28;20039;-75
2022/03/26 04:52:52;;;;;;;8.88;2.65;;;3.60;78.80;;;;;;5057259;28;20128;-75
2022/03/26 04:55:18;;;;;;;6.88;3.08;;;3.60;80.00;;;;;;5056625;28;20073;-75
2022/03/26 04:57:47;;;;;;;7.47;3.80;;;3.60;80.40;;;;;;5066422;28;20205;-74
2022/03/26 05:00:15;;;;;;;30.35;13.63;;;3.70;79.40;;;;;;5047224;28;20040;-75
2022/03/26 05:02:41;;;;;;;20.88;10.00;;;3.80;79.70;;;;;;5048159;28;20032;-74
2022/03/26 05:05:09;;;;;;;6.53;3.70;;;4.00;79.60;;;;;;5052861;28;20048;-74
2022/03/26 05:07:48;;;;;;;7.30;3.30;;;4.00;78.90;;;;;;5048565;28;20037;-74
2022/03/26 05:10:16;;;;;;;7.55;2.90;;;3.90;78.40;;;;;;5048279;28;20424;-74
2022/03/26 05:12:43;;;;;;;9.00;3.00;;;3.80;79.00;;;;;;5047739;28;20024;-74
2022/03/26 05:15:10;;;;;;;6.72;3.10;;;3.70;79.40;;;;;;5056168;28;21308;-74
2022/03/26 05:17:36;;;;;;;6.22;3.15;;;3.70;80.20;;;;;;5050907;28;20061;-74
2022/03/26 05:20:03;;;;;;;5.60;2.80;;;3.80;80.30;;;;;;5050995;28;20036;-74
2022/03/26 05:22:29;;;;;;;5.30;3.30;;;3.80;80.40;;;;;;5051516;28;20500;-74
2022/03/26 05:24:54;;;;;;;6.80;3.17;;;3.90;80.90;;;;;;5038504;28;20067;-74
2022/03/26 05:27:20;;;;;;;10.23;4.75;;;4.00;80.70;;;;;;5052639;28;20565;-74
2022/03/26 05:29:46;;;;;;;22.92;5.50;;;4.30;79.40;;;;;;5048055;28;20685;-74
2022/03/26 05:32:13;;;;;;;9.65;6.47;;;4.50;78.90;;;;;;5053511;28;20036;-74
2022/03/26 05:34:39;;;;;;;36.83;21.48;;;4.70;78.80;;;;;;5050648;28;20040;-74
2022/03/26 05:37:05;;;;;;;26.13;12.88;;;5.00;79.10;;;;;;5052973;28;20044;-75
2022/03/26 05:39:31;;;;;;;20.23;12.18;;;5.20;80.60;;;;;;5056070;28;20128;-75
2022/03/26 05:41:57;;;;;;;11.70;5.15;;;5.40;80.10;;;;;;5049422;28;20097;-74
2022/03/26 05:44:23;;;;;;;12.20;4.32;;;5.50;77.90;;;;;;5053758;28;20036;-74
2022/03/26 05:46:49;;;;;;;8.90;4.18;;;5.60;77.90;;;;;;5053243;28;20035;-74
2022/03/26 05:49:16;;;;;;;6.72;4.13;;;5.50;79.00;;;;;;5057539;28;20051;-74
2022/03/26 05:51:42;;;;;;;10.45;3.65;;;5.50;80.30;;;;;;5052250;28;20283;-74
2022/03/26 05:54:08;;;;;;;11.25;3.97;;;5.50;81.40;;;;;;5050658;28;20044;-74
2022/03/26 05:56:36;;;;;;;13.50;4.30;;;5.70;81.30;;;;;;5052318;28;20054;-74
2022/03/26 05:59:03;;;;;;;7.60;5.00;;;5.80;81.00;;;;;;5052247;28;20037;-74
2022/03/26 06:01:30;;;;;;;12.43;7.15;;;6.10;79.80;;;;;;5054732;28;20037;-74
2022/03/26 06:03:56;;;;;;;27.30;16.02;;;6.10;79.20;;;;;;5056398;28;20401;-74
2022/03/26 06:06:22;;;;;;;36.92;21.27;;;6.10;80.20;;;;;;5053806;28;20029;-74
2022/03/26 06:08:47;;;;;;;16.13;10.02;;;6.10;81.70;;;;;;5035428;28;20037;-72
2022/03/26 06:11:13;;;;;;;20.23;13.50;;;6.10;82.40;;;;;;5063555;28;20033;-73
2022/03/26 06:13:39;;;;;;;24.33;16.23;;;6.30;82.10;;;;;;5051865;28;20036;-73
2022/03/26 06:16:04;;;;;;;31.77;19.60;;;6.60;81.60;;;;;;5051829;28;20091;-73
2022/03/26 06:18:31;;;;;;;26.40;19.02;;;6.90;81.70;;;;;;5051536;28;20045;-73
2022/03/26 06:20:57;;;;;;;28.98;19.73;;;7.30;80.40;;;;;;5054701;28;20045;-73
2022/03/26 06:23:22;;;;;;;33.05;19.23;;;7.50;78.10;;;;;;5053426;28;20044;-72
2022/03/26 06:25:48;;;;;;;44.00;17.60;;;7.70;77.40;;;;;;5049972;28;20041;-73
2022/03/26 06:28:19;;;;;;;27.23;19.40;;;8.00;77.30;;;;;;5048213;28;20099;-73
2022/03/26 06:30:45;;;;;;;26.83;18.02;;;8.10;76.30;;;;;;5049890;28;20666;-73
2022/03/26 06:33:12;;;;;;;32.90;20.58;;;8.30;77.30;;;;;;5036843;28;20041;-73
2022/03/26 06:35:38;;;;;;;54.83;32.05;;;8.40;75.60;;;;;;5057410;28;20045;-73
2022/03/26 06:38:04;;;;;;;48.05;31.27;;;8.70;75.90;;;;;;5033817;28;20033;-73
2022/03/26 06:40:30;;;;;;;37.90;25.17;;;8.80;76.90;;;;;;5054125;28;20134;-73
2022/03/26 06:42:56;;;;;;;31.40;18.70;;;8.90;78.50;;;;;;5056363;28;20086;-72
2022/03/26 06:45:22;;;;;;;30.05;19.52;;;9.00;77.90;;;;;;5054355;28;20029;-73
2022/03/26 06:47:47;;;;;;;30.13;19.67;;;9.20;77.00;;;;;;5054554;28;20051;-73
2022/03/26 06:50:13;;;;;;;21.50;14.43;;;9.40;76.40;;;;;;5055795;28;20043;-74
2022/03/26 06:52:39;;;;;;;26.67;14.98;;;9.70;75.10;;;;;;5049555;28;20124;-73
2022/03/26 06:55:08;;;;;;;17.73;11.65;;;10.00;74.50;;;;;;5051098;28;20069;-72
2022/03/26 06:57:34;;;;;;;15.68;7.40;;;10.20;74.60;;;;;;5057759;28;20115;-73
2022/03/26 06:59:59;;;;;;;11.05;5.57;;;10.50;73.60;;;;;;5052898;28;20120;-73
2022/03/26 07:02:25;;;;;;;9.65;5.40;;;10.80;72.50;;;;;;5056445;28;20366;-72
2022/03/26 07:04:51;;;;;;;8.30;4.85;;;11.00;70.80;;;;;;5057467;28;20541;-72
2022/03/26 07:07:17;;;;;;;6.82;4.53;;;11.20;70.20;;;;;;5053105;28;20492;-72
2022/03/26 07:09:43;;;;;;;8.68;4.20;;;11.40;69.60;;;;;;5052981;28;20060;-72
2022/03/26 07:12:09;;;;;;;7.05;4.90;;;11.70;68.40;;;;;;5037589;28;20684;-72
2022/03/26 07:14:35;;;;;;;11.27;4.20;;;12.00;68.00;;;;;;5047405;28;20067;-72
2022/03/26 07:17:00;;;;;;;7.78;4.57;;;12.10;66.00;;;;;;5062191;28;20036;-72
2022/03/26 07:19:26;;;;;;;11.25;3.88;;;12.30;64.10;;;;;;5062961;28;20796;-72
2022/03/26 07:21:52;;;;;;;9.98;4.32;;;12.60;62.90;;;;;;5057059;28;20049;-72
2022/03/26 07:24:18;;;;;;;11.75;4.25;;;12.70;62.20;;;;;;5058932;28;20551;-72
2022/03/26 07:26:43;;;;;;;10.15;4.38;;;12.80;62.10;;;;;;5056752;28;20041;-72
2022/03/26 07:29:10;;;;;;;11.85;4.63;;;13.00;61.10;;;;;;5062024;28;20421;-72
2022/03/26 07:31:36;;;;;;;11.48;4.13;;;13.20;59.70;;;;;;5050873;28;20045;-73
2022/03/26 07:34:01;;;;;;;11.07;3.72;;;13.30;59.10;;;;;;5057338;28;20519;-72
2022/03/26 07:36:27;;;;;;;12.25;4.55;;;13.50;58.30;;;;;;5058264;28;20246;-72
2022/03/26 07:38:53;;;;;;;7.95;4.85;;;13.60;57.80;;;;;;5061743;28;20051;-70
2022/03/26 07:41:19;;;;;;;9.20;4.30;;;13.60;57.70;;;;;;5056857;28;20048;-72
2022/03/26 07:43:45;;;;;;;11.35;4.22;;;13.70;57.70;;;;;;5058305;28;20044;-72
2022/03/26 07:46:10;;;;;;;10.98;4.22;;;13.90;57.00;;;;;;5053090;28;20041;-73
2022/03/26 07:48:36;;;;;;;14.82;5.65;;;14.10;56.30;;;;;;5058642;28;20044;-72
2022/03/26 07:51:01;;;;;;;14.05;6.53;;;14.30;55.40;;;;;;5057067;28;20045;-73
2022/03/26 07:53:29;;;;;;;17.42;5.93;;;14.50;54.90;;;;;;5052820;28;20405;-73
2022/03/26 07:55:55;;;;;;;11.77;5.57;;;14.60;54.50;;;;;;5058198;28;20044;-73
2022/03/26 07:58:21;;;;;;;7.30;4.38;;;14.80;54.40;;;;;;5044484;28;20649;-73
2022/03/26 08:00:48;;;;;;;6.80;3.83;;;15.00;54.40;;;;;;5053581;28;21749;-73
2022/03/26 08:03:14;;;;;;;10.32;4.60;;;15.10;53.70;;;;;;5056462;28;20072;-73
2022/03/26 08:05:40;;;;;;;7.25;4.13;;;15.10;53.60;;;;;;5056863;28;20119;-73
2022/03/26 08:08:06;;;;;;;7.10;4.10;;;15.30;52.80;;;;;;5053424;28;20459;-73
2022/03/26 08:10:32;;;;;;;6.22;4.07;;;15.40;53.00;;;;;;5056524;28;20527;-73
2022/03/26 08:12:58;;;;;;;7.18;3.65;;;15.50;52.60;;;;;;5053373;28;20040;-73
2022/03/26 08:15:23;;;;;;;6.90;3.40;;;15.50;53.40;;;;;;5059454;28;20044;-73
2022/03/26 08:17:49;;;;;;;7.95;3.67;;;15.60;52.40;;;;;;5061478;28;20499;-73
2022/03/26 08:20:15;;;;;;;11.52;4.30;;;15.60;51.90;;;;;;5038982;28;20033;-73
2022/03/26 08:22:41;;;;;;;7.93;4.10;;;15.60;52.00;;;;;;5054897;28;20041;-73
2022/03/26 08:25:09;;;;;;;11.20;4.20;;;15.60;51.70;;;;;;5058366;28;20159;-73
2022/03/26 08:27:37;;;;;;;7.60;3.97;;;15.70;51.50;;;;;;5054183;28;20075;-72
2022/03/26 08:30:04;;;;;;;7.78;3.80;;;15.90;51.10;;;;;;5047638;28;20540;-73
2022/03/26 08:32:30;;;;;;;10.32;4.28;;;16.00;50.00;;;;;;5047213;28;20167;-73
2022/03/26 08:34:56;;;;;;;9.07;4.65;;;16.10;50.20;;;;;;5051401;28;20413;-73
2022/03/26 08:37:22;;;;;;;6.75;4.55;;;16.20;50.20;;;;;;5054336;28;20075;-74
2022/03/26 08:39:47;;;;;;;5.03;3.70;;;16.30;50.20;;;;;;5061861;28;20067;-72
2022/03/26 08:42:13;;;;;;;14.82;5.80;;;16.40;50.10;;;;;;5068122;28;20036;-72
2022/03/26 08:44:39;;;;;;;10.35;4.30;;;16.40;49.60;;;;;;5054686;28;20493;-72
2022/03/26 08:47:05;;;;;;;6.70;4.07;;;16.40;49.10;;;;;;5066719;28;20031;-70
2022/03/26 08:49:32;;;;;;;10.82;5.00;;;16.40;48.70;;;;;;5066696;28;20104;-71
2022/03/26 08:51:58;;;;;;;9.65;4.60;;;16.40;48.50;;;;;;5064303;28;20033;-72
2022/03/26 08:54:24;;;;;;;6.57;3.90;;;16.40;49.00;;;;;;5075655;28;20092;-73
2022/03/26 08:56:49;;;;;;;7.20;4.13;;;16.50;48.60;;;;;;5058273;28;20040;-72
2022/03/26 08:59:15;;;;;;;8.15;4.18;;;16.60;48.10;;;;;;5061206;28;20552;-71
2022/03/26 09:01:41;;;;;;;12.57;4.60;;;16.70;48.00;;;;;;5064214;28;20436;-72
2022/03/26 09:04:06;;;;;;;6.82;4.35;;;16.80;48.60;;;;;;5066088;28;20140;-72
2022/03/26 09:06:33;;;;;;;7.55;4.00;;;17.00;48.20;;;;;;5072752;28;20044;-72
2022/03/26 09:08:59;;;;;;;5.80;3.53;;;17.10;47.60;;;;;;5058132;28;20048;-71
2022/03/26 09:11:25;;;;;;;7.82;4.03;;;17.20;47.20;;;;;;5064226;28;20041;-77
2022/03/26 09:13:51;;;;;;;6.03;4.43;;;17.40;48.00;;;;;;5071695;28;20101;-75
2022/03/26 09:16:17;;;;;;;7.75;4.00;;;17.50;46.70;;;;;;5066509;28;20508;-75
2022/03/26 09:18:42;;;;;;;5.78;4.18;;;17.60;45.50;;;;;;5061060;28;20056;-75
2022/03/26 09:21:08;;;;;;;6.25;3.90;;;17.50;45.40;;;;;;5066017;28;20143;-75
2022/03/26 09:23:34;;;;;;;6.28;4.30;;;17.60;44.80;;;;;;5062719;28;20044;-75
2022/03/26 09:26:04;;;;;;;7.35;4.00;;;17.50;43.30;;;;;;5050985;28;20062;-76
2022/03/26 09:28:29;;;;;;;16.30;4.30;;;17.40;44.00;;;;;;5059339;28;20100;-75
2022/03/26 09:30:55;;;;;;;6.60;4.10;;;17.50;44.70;;;;;;5056208;28;20129;-75
2022/03/26 09:33:21;;;;;;;6.68;3.80;;;17.60;44.30;;;;;;5055489;28;20105;-76
2022/03/26 09:35:47;;;;;;;6.97;4.20;;;17.70;44.00;;;;;;5054178;28;20430;-75
2022/03/26 09:38:13;;;;;;;8.27;3.72;;;17.80;43.10;;;;;;5056619;28;20091;-77
2022/03/26 09:40:43;;;;;;;7.90;3.90;;;17.80;43.60;;;;;;5058237;28;20151;-75
2022/03/26 09:43:09;;;;;;;6.88;3.83;;;18.00;42.00;;;;;;5051178;28;20040;-75
2022/03/26 09:45:35;;;;;;;8.00;4.20;;;18.10;41.90;;;;;;5059657;28;20035;-76
2022/03/26 09:48:00;;;;;;;5.60;3.42;;;18.20;39.80;;;;;;5058891;28;20429;-74
2022/03/26 09:50:26;;;;;;;7.50;3.75;;;18.20;40.50;;;;;;5067676;28;21118;-74
2022/03/26 09:52:52;;;;;;;6.47;3.80;;;18.30;40.70;;;;;;5060089;28;20613;-73
2022/03/26 09:55:21;;;;;;;9.30;3.80;;;18.20;38.90;;;;;;5059023;28;20710;-75
2022/03/26 09:57:48;;;;;;;5.80;3.67;;;18.20;37.20;;;;;;5056587;28;20056;-76
2022/03/26 10:00:14;;;;;;;7.32;4.88;;;18.30;36.70;;;;;;5052096;28;20033;-76
2022/03/26 10:02:39;;;;;;;8.85;4.15;;;18.50;35.30;;;;;;5055059;28;20063;-76
2022/03/26 10:05:08;;;;;;;9.88;4.80;;;18.60;34.90;;;;;;5035552;28;20782;-75
2022/03/26 10:07:34;;;;;;;6.40;4.85;;;18.50;33.20;;;;;;5057364;28;20083;-74
2022/03/26 10:10:02;;;;;;;8.90;5.35;;;18.40;33.70;;;;;;5050988;28;20182;-72
2022/03/26 10:12:28;;;;;;;11.70;5.82;;;18.40;34.80;;;;;;5057180;28;20029;-73
2022/03/26 10:15:00;;;;;;;7.32;5.38;;;18.30;34.50;;;;;;5055862;28;20197;-75
2022/03/26 10:17:26;;;;;;;9.15;6.10;;;18.50;34.40;;;;;;5059727;28;20409;-73
2022/03/26 10:19:55;;;;;;;21.45;5.47;;;18.60;33.00;;;;;;5055538;28;20044;-71
2022/03/26 10:22:44;;;;;;;5.90;4.18;;;18.70;34.80;;;;;;5060397;28;20104;-72
2022/03/26 10:25:12;;;;;;;8.38;5.10;;;18.90;32.10;;;;;;5053769;28;20497;-72
2022/03/26 10:27:43;;;;;;;9.38;5.40;;;19.00;31.20;;;;;;5051228;28;22729;-73
2022/03/26 10:30:12;;;;;;;7.25;4.88;;;18.90;32.20;;;;;;5043438;28;20548;-72
2022/03/26 10:32:45;;;;;;;8.60;4.90;;;18.90;31.40;;;;;;5061648;28;20043;-73
2022/03/26 10:35:22;;;;;;;7.35;5.75;;;18.90;30.90;;;;;;5058552;28;20029;-72
2022/03/26 10:37:56;;;;;;;8.68;5.45;;;18.70;29.60;;;;;;5057645;28;21262;-72
2022/03/26 10:40:33;;;;;;;13.57;6.75;;;18.60;30.10;;;;;;5062217;28;20044;-72
2022/03/26 10:43:00;;;;;;;11.57;6.95;;;18.60;30.60;;;;;;5055366;28;20048;-72
2022/03/26 10:45:28;;;;;;;13.73;7.63;;;18.50;29.90;;;;;;5058038;28;20056;-72
2022/03/26 10:47:56;;;;;;;13.50;7.97;;;18.40;30.80;;;;;;5056917;28;20029;-73
2022/03/26 10:50:22;;;;;;;9.63;7.53;;;18.50;32.80;;;;;;5057625;28;20078;-73
2022/03/26 10:52:47;;;;;;;15.20;9.57;;;18.60;30.50;;;;;;5054018;28;20021;-72
2022/03/26 10:55:16;;;;;;;11.02;8.35;;;18.60;31.50;;;;;;5052712;28;20037;-72
2022/03/26 10:57:45;;;;;;;15.10;7.30;;;18.50;31.40;;;;;;5058240;28;20673;-72
2022/03/26 11:00:13;;;;;;;10.88;8.38;;;18.50;31.00;;;;;;5049120;28;20031;-73
2022/03/26 11:02:40;;;;;;;13.02;8.40;;;18.50;31.00;;;;;;5046599;28;20090;-73
2022/03/26 11:05:07;;;;;;;11.75;8.00;;;18.50;31.40;;;;;;5048454;28;20764;-73
2022/03/26 11:07:36;;;;;;;10.20;8.13;;;18.40;32.10;;;;;;5051941;28;20090;-73
2022/03/26 11:10:05;;;;;;;14.85;8.13;;;18.60;31.50;;;;;;5051023;28;20041;-72
2022/03/26 11:12:33;;;;;;;10.30;7.60;;;18.60;31.60;;;;;;5042390;28;20140;-72
2022/03/26 11:15:03;;;;;;;12.45;7.30;;;18.70;32.60;;;;;;5046355;28;20083;-72
2022/03/26 11:17:37;;;;;;;13.77;7.47;;;18.60;31.70;;;;;;5046204;28;20040;-72
2022/03/26 11:20:29;;;;;;;13.63;6.95;;;18.70;33.60;;;;;;5049994;28;20044;-72
2022/03/26 11:23:18;;;;;;;17.70;7.13;;;18.70;32.90;;;;;;5039214;28;20489;-72
2022/03/26 11:26:07;;;;;;;11.95;7.35;;;18.60;34.20;;;;;;5041968;28;20044;-72
2022/03/26 11:28:59;;;;;;;13.15;7.47;;;18.50;34.20;;;;;;5051324;28;20041;-72
2022/03/26 11:31:34;;;;;;;15.75;8.38;;;18.40;34.40;;;;;;5055550;28;20051;-72
2022/03/26 11:34:05;;;;;;;14.70;8.45;;;18.50;33.40;;;;;;5055899;28;20961;-71
2022/03/26 11:36:32;;;;;;;11.98;8.70;;;18.60;34.20;;;;;;5047853;28;20952;-72
2022/03/26 11:39:21;;;;;;;14.27;8.73;;;18.70;33.40;;;;;;5048359;28;20029;-72
2022/03/26 11:41:47;;;;;;;14.52;9.27;;;18.70;32.90;;;;;;5052424;28;20037;-70
2022/03/26 11:44:16;;;;;;;14.07;9.02;;;18.70;32.50;;;;;;5023155;28;20048;-70
2022/03/26 11:52:21;;;;;;;12.82;8.57;;;19.00;29.40;;;;;;5050646;28;20147;-71
2022/03/26 11:54:49;;;;;;;15.73;8.60;;;18.90;29.10;;;;;;5044508;28;20060;-71
2022/03/26 11:57:20;;;;;;;12.43;8.30;;;18.80;29.90;;;;;;5043923;28;20040;-72
2022/03/26 11:59:46;;;;;;;21.47;9.33;;;19.00;30.60;;;;;;5046576;28;20090;-72
2022/03/26 12:02:26;;;;;;;14.43;8.32;;;19.10;29.90;;;;;;5050637;28;20067;-71
2022/03/26 12:04:56;;;;;;;11.93;7.47;;;19.00;29.40;;;;;;5047764;28;20057;-72
2022/03/26 12:07:24;;;;;;;11.05;8.32;;;18.80;29.20;;;;;;5043074;28;20044;-72
2022/03/26 12:10:10;;;;;;;12.43;8.55;;;18.60;30.00;;;;;;5043934;28;20025;-72
2022/03/26 12:13:02;;;;;;;11.18;9.00;;;18.80;29.90;;;;;;5054786;28;20033;-71
2022/03/26 12:15:30;;;;;;;12.05;9.02;;;18.80;31.00;;;;;;5045919;28;20398;-72
2022/03/26 12:18:06;;;;;;;13.18;9.80;;;18.80;31.40;;;;;;5049258;28;20028;-72
2022/03/26 12:20:47;;;;;;;15.10;9.65;;;18.80;31.80;;;;;;5047012;28;20040;-72
2022/03/26 12:23:19;;;;;;;18.83;10.40;;;18.90;32.30;;;;;;5051160;28;20036;-72
2022/03/26 12:25:52;;;;;;;18.88;11.38;;;19.00;32.80;;;;;;5051841;28;20047;-73
2022/03/26 12:28:26;;;;;;;16.77;10.82;;;19.00;32.30;;;;;;5051031;28;20032;-73
2022/03/26 12:30:55;;;;;;;16.08;12.10;;;19.10;33.40;;;;;;5051371;28;20098;-72
2022/03/26 12:33:23;;;;;;;15.27;11.27;;;19.00;32.10;;;;;;5048606;28;20032;-72
2022/03/26 12:35:51;;;;;;;15.95;11.13;;;18.90;32.00;;;;;;5046517;28;20032;-72
2022/03/26 12:38:19;;;;;;;14.90;11.02;;;18.80;31.80;;;;;;5050542;28;20563;-73
2022/03/26 12:40:59;;;;;;;19.35;11.52;;;18.90;31.80;;;;;;5050839;28;20028;-71
2022/03/26 12:43:27;;;;;;;16.10;11.05;;;19.00;31.80;;;;;;5025321;28;20562;-71
2022/03/26 12:45:55;;;;;;;14.60;11.73;;;19.10;31.00;;;;;;5048301;28;20047;-71
2022/03/26 12:48:26;;;;;;;15.40;11.18;;;19.20;30.40;;;;;;5047451;28;20032;-71
2022/03/26 12:50:53;;;;;;;15.37;10.87;;;19.30;30.80;;;;;;5056282;28;20048;-71
2022/03/26 12:53:19;;;;;;;14.23;10.95;;;19.30;30.70;;;;;;5048766;28;20040;-71